Station Historical Data
Daily Summary for January 13, 2017 Units:  Metric    English   Both
« Previous Day
Next Day »
Daily Weekly Monthly Yearly Custom
  High: Low: Average:
Temperature: 22 °C 11.3 °C 15.6 °C
Dew Point: 15.9 °C 9.6 °C 12.6 °C
Humidity: 93% 65% 83%
Wind Speed: 16.7km/h 16.7km/h 16.7km/h
Wind Gust: 16.7km/h - -
Wind- - ESE
Pressure: 1033.7 hPa 1029 hPa -
Precipitation: 0 mm    
Historical Graphs
 
 
Tabular Data for January 13, 2017
Time Temperature Dew Point Pressure Wind Wind Speed Wind Gust Humidity Rainfall Rate (Hourly) solar Conditions
00:05 12.3 °C 10.3 °C 1029 hPa WNW 16.7 km/h   88% 0 mm 0.0 W/m2
00:10 12.2 °C 10.2 °C 1029 hPa WNW 16.7 km/h   88% 0 mm 0.0 W/m2
00:15 12.1 °C 10.1 °C 1029 hPa WNW 16.7 km/h   88% 0 mm 0.0 W/m2
00:20 11.9 °C 9.9 °C 1029 hPa WNW 16.7 km/h   88% 0 mm 0.0 W/m2
00:25 11.8 °C 9.8 °C 1029 hPa WNW 16.7 km/h   88% 0 mm 0.0 W/m2
00:30 11.7 °C 9.7 °C 1029 hPa WNW 16.7 km/h   88% 0 mm 0.0 W/m2
00:35 11.6 °C 9.6 °C 1029 hPa WNW 16.7 km/h   88% 0 mm 0.0 W/m2
00:40 11.6 °C 9.8 °C 1029 hPa NNW 16.7 km/h   89% 0 mm 0.0 W/m2
00:45 11.3 °C 9.6 °C 1029 hPa NNW 16.7 km/h   89% 0 mm 0.0 W/m2
00:50 11.4 °C 9.9 °C 1029 hPa NNW 16.7 km/h   91% 0 mm 0.0 W/m2
00:55 11.4 °C 9.9 °C 1029 hPa NNW 16.7 km/h   91% 0 mm 0.0 W/m2
01:00 11.4 °C 9.9 °C 1029 hPa North 16.7 km/h   91% 0 mm 0.0 W/m2
01:05 11.4 °C 9.9 °C 1029 hPa North 16.7 km/h   91% 0 mm 0.0 W/m2
01:11 11.4 °C 9.9 °C 1029 hPa North 16.7 km/h   91% 0 mm 0.0 W/m2
01:16 11.4 °C 9.9 °C 1029 hPa North 16.7 km/h   91% 0 mm 0.0 W/m2
01:21 11.4 °C 9.9 °C 1029 hPa North 16.7 km/h   91% 0 mm 0.0 W/m2
01:26 11.4 °C 9.9 °C 1029 hPa North 16.7 km/h   91% 0 mm 0.0 W/m2
01:31 11.4 °C 9.9 °C 1029 hPa North 16.7 km/h   91% 0 mm 0.0 W/m2
01:36 11.4 °C 9.9 °C 1029 hPa North 16.7 km/h   91% 0 mm 0.0 W/m2
01:41 11.4 °C 9.9 °C 1029 hPa North 16.7 km/h   91% 0 mm 0.0 W/m2
01:46 11.4 °C 9.9 °C 1029 hPa North 16.7 km/h   91% 0 mm 0.0 W/m2
01:51 11.4 °C 9.9 °C 1029 hPa North 16.7 km/h   91% 0 mm 0.0 W/m2
01:56 11.4 °C 9.9 °C 1029 hPa North 16.7 km/h   91% 0 mm 0.0 W/m2
02:02 11.4 °C 9.9 °C 1029.3 hPa North 16.7 km/h   91% 0 mm 0.0 W/m2
02:07 11.4 °C 9.9 °C 1029.3 hPa North 16.7 km/h   91% 0 mm 0.0 W/m2
02:12 11.4 °C 9.9 °C 1029.3 hPa North 16.7 km/h   91% 0 mm 0.0 W/m2
02:17 11.4 °C 9.9 °C 1029.3 hPa North 16.7 km/h   91% 0 mm 0.0 W/m2
02:22 11.4 °C 9.9 °C 1029.3 hPa North 16.7 km/h   91% 0 mm 0.0 W/m2
02:27 11.4 °C 9.9 °C 1029.3 hPa North 16.7 km/h   91% 0 mm 0.0 W/m2
02:32 11.4 °C 9.9 °C 1029.3 hPa North 16.7 km/h   91% 0 mm 0.0 W/m2
02:37 11.4 °C 9.9 °C 1029.3 hPa North 16.7 km/h   91% 0 mm 0.0 W/m2
02:42 11.4 °C 9.9 °C 1029.3 hPa North 16.7 km/h   91% 0 mm 0.0 W/m2
02:43 11.4 °C 9.9 °C 1029.3 hPa North 16.7 km/h   91% 0 mm 0.0 W/m2
02:48 11.4 °C 9.9 °C 1029.3 hPa North 16.7 km/h   91% 0 mm 0.0 W/m2
02:53 11.4 °C 9.9 °C 1029.3 hPa North 16.7 km/h   91% 0 mm 0.0 W/m2
02:58 11.4 °C 9.9 °C 1029.3 hPa North 16.7 km/h   91% 0 mm 0.0 W/m2
03:03 11.4 °C 9.9 °C 1029.3 hPa North 16.7 km/h   91% 0 mm 0.0 W/m2
03:08 11.4 °C 9.9 °C 1029.3 hPa North 16.7 km/h   91% 0 mm 0.0 W/m2
03:13 11.4 °C 9.9 °C 1029.7 hPa North 16.7 km/h   91% 0 mm 0.0 W/m2
03:18 11.4 °C 9.9 °C 1029.7 hPa North 16.7 km/h   91% 0 mm 0.0 W/m2
03:23 11.4 °C 9.9 °C 1029.7 hPa North 16.7 km/h   91% 0 mm 0.0 W/m2
03:28 11.4 °C 9.9 °C 1029.7 hPa North 16.7 km/h   91% 0 mm 0.0 W/m2
03:33 11.4 °C 9.9 °C 1029.7 hPa North 16.7 km/h   91% 0 mm 0.0 W/m2
03:38 11.4 °C 9.9 °C 1029.7 hPa North 16.7 km/h   91% 0 mm 0.0 W/m2
03:43 11.4 °C 9.9 °C 1029.7 hPa North 16.7 km/h   91% 0 mm 0.0 W/m2
03:48 11.4 °C 9.9 °C 1029.7 hPa North 16.7 km/h   91% 0 mm 0.0 W/m2
03:53 11.4 °C 9.9 °C 1029.7 hPa North 16.7 km/h   91% 0 mm 0.0 W/m2
03:58 11.4 °C 9.9 °C 1029.7 hPa North 16.7 km/h   91% 0 mm 0.0 W/m2
04:04 11.4 °C 9.9 °C 1029.7 hPa North 16.7 km/h   91% 0 mm 0.0 W/m2
04:09 11.4 °C 9.9 °C 1029.7 hPa North 16.7 km/h   91% 0 mm 0.0 W/m2
04:14 11.4 °C 9.9 °C 1030 hPa North 16.7 km/h   91% 0 mm 0.0 W/m2
04:19 11.4 °C 9.9 °C 1030 hPa North 16.7 km/h   91% 0 mm 0.0 W/m2
04:24 11.4 °C 9.9 °C 1030 hPa North 16.7 km/h   91% 0 mm 0.0 W/m2
04:29 11.4 °C 9.9 °C 1030 hPa North 16.7 km/h   91% 0 mm 0.0 W/m2
04:34 11.4 °C 9.9 °C 1030 hPa North 16.7 km/h   91% 0 mm 0.0 W/m2
04:39 11.4 °C 9.9 °C 1030 hPa North 16.7 km/h   91% 0 mm 0.0 W/m2
04:44 11.4 °C 9.9 °C 1030 hPa North 16.7 km/h   91% 0 mm 0.0 W/m2
04:49 11.4 °C 9.9 °C 1029.7 hPa North 16.7 km/h   91% 0 mm 0.0 W/m2
04:54 11.4 °C 9.9 °C 1030 hPa North 16.7 km/h   91% 0 mm 0.0 W/m2
05:00 11.4 °C 9.9 °C 1029.7 hPa North 16.7 km/h   91% 0 mm 0.0 W/m2
05:05 11.4 °C 9.9 °C 1029.7 hPa North 16.7 km/h   91% 0 mm 0.0 W/m2
05:10 11.4 °C 9.9 °C 1029.7 hPa North 16.7 km/h   91% 0 mm 0.0 W/m2
05:15 11.4 °C 9.9 °C 1030 hPa North 16.7 km/h   91% 0 mm 0.0 W/m2
05:20 11.4 °C 9.9 °C 1030 hPa North 16.7 km/h   91% 0 mm 0.0 W/m2
05:25 11.4 °C 9.9 °C 1030 hPa North 16.7 km/h   91% 0 mm 0.0 W/m2
05:30 11.4 °C 9.9 °C 1030 hPa North 16.7 km/h   91% 0 mm 0.0 W/m2
05:35 11.4 °C 9.9 °C 1030.4 hPa North 16.7 km/h   91% 0 mm 0.0 W/m2
05:40 11.4 °C 9.9 °C 1030.4 hPa North 16.7 km/h   91% 0 mm 0.0 W/m2
05:45 11.4 °C 9.9 °C 1030.4 hPa North 16.7 km/h   91% 0 mm 0.0 W/m2
05:50 11.4 °C 9.9 °C 1030.4 hPa North 16.7 km/h   91% 0 mm 0.0 W/m2
05:55 11.4 °C 9.9 °C 1030.4 hPa North 16.7 km/h   91% 0 mm 0.0 W/m2
06:00 11.4 °C 9.9 °C 1030.7 hPa North 16.7 km/h   91% 0 mm 0.0 W/m2
06:05 11.4 °C 9.9 °C 1030.7 hPa North 16.7 km/h   91% 0 mm 0.0 W/m2
06:11 11.4 °C 9.9 °C 1030.7 hPa North 16.7 km/h   91% 0 mm 0.0 W/m2
06:16 11.4 °C 9.9 °C 1030.7 hPa North 16.7 km/h   91% 0 mm 0.0 W/m2
06:21 11.4 °C 9.9 °C 1031 hPa North 16.7 km/h   91% 0 mm 0.0 W/m2
06:26 11.4 °C 9.9 °C 1031 hPa North 16.7 km/h   91% 0 mm 0.0 W/m2
06:31 11.4 °C 9.9 °C 1031 hPa North 16.7 km/h   91% 0 mm 0.0 W/m2
06:36 11.4 °C 9.9 °C 1031 hPa North 16.7 km/h   91% 0 mm 0.0 W/m2
06:41 11.4 °C 9.9 °C 1031.4 hPa North 16.7 km/h   91% 0 mm 0.0 W/m2
06:46 11.4 °C 9.9 °C 1031.4 hPa North 16.7 km/h   91% 0 mm 0.0 W/m2
06:51 11.4 °C 9.9 °C 1031.4 hPa North 16.7 km/h   91% 0 mm 0.0 W/m2
06:56 11.4 °C 9.9 °C 1031.4 hPa North 16.7 km/h   91% 0 mm 0.0 W/m2
07:01 11.4 °C 9.9 °C 1031.4 hPa North 16.7 km/h   91% 0 mm 0.0 W/m2 CLR
07:06 11.4 °C 9.9 °C 1031.4 hPa North 16.7 km/h   91% 0 mm 0.0 W/m2 CLR
07:11 11.4 °C 9.9 °C 1031.4 hPa North 16.7 km/h   91% 0 mm 0.0 W/m2 CLR
07:16 11.4 °C 9.9 °C 1031.7 hPa North 16.7 km/h   91% 0 mm 0.0 W/m2 CLR
07:21 11.4 °C 9.9 °C 1031.7 hPa North 16.7 km/h   91% 0 mm 0.0 W/m2 CLR
07:26 11.4 °C 9.9 °C 1031.7 hPa North 16.7 km/h   91% 0 mm 0.0 W/m2 CLR
07:32 11.4 °C 9.9 °C 1031.7 hPa North 16.7 km/h   91% 0 mm 0.0 W/m2 CLR
07:37 11.4 °C 9.9 °C 1031.7 hPa North 16.7 km/h   91% 0 mm 0.0 W/m2 CLR
07:42 11.4 °C 9.9 °C 1031.7 hPa North 16.7 km/h   91% 0 mm 0.0 W/m2 CLR
07:47 11.4 °C 9.9 °C 1032.1 hPa North 16.7 km/h   91% 0 mm 0.0 W/m2 CLR
07:52 11.4 °C 9.9 °C 1031.7 hPa North 16.7 km/h   91% 0 mm 0.0 W/m2 CLR
07:57 11.4 °C 9.9 °C 1032.1 hPa North 16.7 km/h   91% 0 mm 0.0 W/m2 CLR
08:02 11.4 °C 9.9 °C 1032.1 hPa North 16.7 km/h   91% 0 mm 0.0 W/m2 CLR
08:07 11.4 °C 9.9 °C 1032.1 hPa North 16.7 km/h   91% 0 mm 0.0 W/m2 CLR
08:12 11.4 °C 9.9 °C 1032.1 hPa North 16.7 km/h   91% 0 mm 0.0 W/m2 CLR
08:17 11.4 °C 9.9 °C 1032.1 hPa North 16.7 km/h   91% 0 mm 0.0 W/m2 CLR
08:23 11.4 °C 9.9 °C 1032.4 hPa North 16.7 km/h   91% 0 mm 0.0 W/m2 CLR
08:28 11.4 °C 9.9 °C 1032.4 hPa North 16.7 km/h   91% 0 mm 0.0 W/m2 CLR
08:33 11.4 °C 9.9 °C 1032.4 hPa North 16.7 km/h   91% 0 mm 0.0 W/m2 CLR
08:38 11.4 °C 9.9 °C 1032.4 hPa North 16.7 km/h   91% 0 mm 0.0 W/m2 CLR
08:43 11.4 °C 9.9 °C 1032.4 hPa North 16.7 km/h   91% 0 mm 0.0 W/m2 CLR
08:48 11.4 °C 9.9 °C 1032.4 hPa North 16.7 km/h   91% 0 mm 0.0 W/m2 CLR
08:53 11.4 °C 9.9 °C 1032.7 hPa North 16.7 km/h   91% 0 mm 0.0 W/m2 CLR
08:58 11.4 °C 9.9 °C 1032.7 hPa North 16.7 km/h   91% 0 mm 0.0 W/m2 CLR
09:03 11.4 °C 9.9 °C 1032.7 hPa North 16.7 km/h   91% 0 mm 0.0 W/m2 OVC
09:08 13.3 °C 12.2 °C 1032.7 hPa ENE 16.7 km/h   93% 0 mm 0.0 W/m2 OVC
09:13 13.6 °C 12.5 °C 1032.7 hPa ENE 16.7 km/h   93% 0 mm 0.0 W/m2 OVC
09:19 13.7 °C 12.6 °C 1032.7 hPa ENE 16.7 km/h   93% 0 mm 0.0 W/m2 OVC
09:24 13.8 °C 12.7 °C 1033.1 hPa ENE 16.7 km/h   93% 0 mm 0.0 W/m2 OVC
09:29 14 °C 12.7 °C 1033.1 hPa ENE 16.7 km/h   92% 0 mm 0.0 W/m2 OVC
09:34 14.3 °C 13 °C 1033.1 hPa ENE 16.7 km/h   92% 0 mm 0.0 W/m2 OVC
09:39 14.6 °C 13.1 °C 1033.1 hPa ENE 16.7 km/h   91% 0 mm 0.0 W/m2 OVC
09:44 14.8 °C 13.1 °C 1033.1 hPa ENE 16.7 km/h   89% 0 mm 0.0 W/m2 OVC
09:49 15.1 °C 13.3 °C 1033.4 hPa ENE 16.7 km/h   89% 0 mm 0.0 W/m2 OVC
09:54 15.4 °C 13.6 °C 1033.4 hPa ENE 16.7 km/h   89% 0 mm 0.0 W/m2 OVC
09:59 15.7 °C 13.7 °C 1033.4 hPa ENE 16.7 km/h   88% 0 mm 0.0 W/m2 OVC
10:04 15.9 °C 13.8 °C 1033.4 hPa ENE 16.7 km/h   87% 0 mm 0.0 W/m2 OVC
10:09 16.2 °C 14.1 °C 1033.4 hPa NNE 16.7 km/h   87% 0 mm 0.0 W/m2 OVC
10:14 16.5 °C 14.2 °C 1033.4 hPa NNE 16.7 km/h   86% 0 mm 0.0 W/m2 OVC
10:19 16.7 °C 14.2 °C 1033.4 hPa NNE 16.7 km/h   85% 0 mm 0.0 W/m2 OVC
10:24 17 °C 14.4 °C 1033.4 hPa NNE 16.7 km/h   85% 0 mm 0.0 W/m2 OVC
10:29 17.3 °C 14.6 °C 1033.4 hPa NNE 16.7 km/h 16.7 km/h 84% 0 mm 0.0 W/m2 OVC
10:34 17.7 °C 14.8 °C 1033.7 hPa North 16.7 km/h   83% 0 mm 0.0 W/m2 OVC
10:39 18.1 °C 14.7 °C 1033.4 hPa North 16.7 km/h   81% 0 mm 0.0 W/m2 OVC
10:44 18.3 °C 14.8 °C 1033.4 hPa ENE 16.7 km/h 16.7 km/h 80% 0 mm 0.0 W/m2 OVC
10:50 18.4 °C 15.1 °C 1033.4 hPa NNE 16.7 km/h   81% 0 mm 0.0 W/m2 OVC
10:55 18.8 °C 15.1 °C 1033.4 hPa NNE 16.7 km/h   79% 0 mm 0.0 W/m2 OVC
11:00 19.1 °C 15.3 °C 1033.4 hPa NNW 16.7 km/h   79% 0 mm 0.0 W/m2 OVC
11:05 19.2 °C 15.3 °C 1033.4 hPa NNW 16.7 km/h   78% 0 mm 0.0 W/m2 OVC
11:10 19.5 °C 15.6 °C 1033.4 hPa NNW 16.7 km/h   78% 0 mm 0.0 W/m2 OVC
11:15 19.8 °C 15.6 °C 1033.4 hPa NNW 16.7 km/h   77% 0 mm 0.0 W/m2 OVC
11:20 19.9 °C 15.6 °C 1033.4 hPa NNE 16.7 km/h 16.7 km/h 76% 0 mm 0.0 W/m2 OVC
11:25 20.1 °C 15.6 °C 1033.4 hPa North 16.7 km/h 16.7 km/h 75% 0 mm 0.0 W/m2 OVC
11:30 20.3 °C 15.9 °C 1033.1 hPa NW 16.7 km/h 16.7 km/h 76% 0 mm 0.0 W/m2 OVC
11:35 20.5 °C 15.7 °C 1033.1 hPa ENE 16.7 km/h   74% 0 mm 0.0 W/m2 OVC
11:40 20.4 °C 15.7 °C 1033.1 hPa ENE 16.7 km/h   74% 0 mm 0.0 W/m2 OVC
11:45 20.6 °C 15.8 °C 1033.1 hPa North 16.7 km/h   74% 0 mm 0.0 W/m2 OVC
11:50 20.7 °C 15.7 °C 1033.1 hPa ENE 16.7 km/h 16.7 km/h 73% 0 mm 0.0 W/m2 OVC
11:55 20.8 °C 15.6 °C 1033.1 hPa NNE 16.7 km/h 16.7 km/h 72% 0 mm 0.0 W/m2 OVC
12:00 20.7 °C 15.5 °C 1032.7 hPa East 16.7 km/h 16.7 km/h 72% 0 mm 0.0 W/m2 OVC
12:05 20.7 °C 15.7 °C 1032.7 hPa WNW 16.7 km/h   73% 0 mm 0.0 W/m2 OVC
12:10 20.7 °C 15.4 °C 1032.7 hPa East 16.7 km/h 16.7 km/h 72% 0 mm 0.0 W/m2 OVC
12:15 20.7 °C 15.4 °C 1032.7 hPa ENE 16.7 km/h 16.7 km/h 72% 0 mm 0.0 W/m2 OVC
12:20 20.7 °C 15.4 °C 1032.7 hPa East 16.7 km/h 16.7 km/h 72% 0 mm 0.0 W/m2 OVC
12:25 20.7 °C 15.5 °C 1032.4 hPa NW 16.7 km/h   72% 0 mm 0.0 W/m2 OVC
12:30 20.9 °C 15.5 °C 1032.4 hPa ESE 16.7 km/h 16.7 km/h 71% 0 mm 0.0 W/m2 OVC
12:35 20.9 °C 15.5 °C 1032.4 hPa North 16.7 km/h 16.7 km/h 71% 0 mm 0.0 W/m2 OVC
12:40 20.9 °C 15.3 °C 1032.4 hPa NNW 16.7 km/h   70% 0 mm 0.0 W/m2 OVC
12:45 21.1 °C 15.4 °C 1032.4 hPa North 16.7 km/h 16.7 km/h 70% 0 mm 0.0 W/m2 OVC
12:50 21 °C 15.3 °C 1032.1 hPa NNW 16.7 km/h 16.7 km/h 70% 0 mm 0.0 W/m2 OVC
12:56 21.1 °C 15.4 °C 1032.1 hPa SE 16.7 km/h 16.7 km/h 70% 0 mm 0.0 W/m2 OVC
13:01 20.9 °C 15.3 °C 1032.1 hPa SW 16.7 km/h 16.7 km/h 70% 0 mm 0.0 W/m2 OVC
13:06 20.9 °C 15.3 °C 1032.1 hPa ESE 16.7 km/h 16.7 km/h 70% 0 mm 0.0 W/m2 OVC
13:11 20.9 °C 15.3 °C 1032.1 hPa SE 16.7 km/h 16.7 km/h 70% 0 mm 0.0 W/m2 OVC
13:16 20.9 °C 15.2 °C 1032.1 hPa NNW 16.7 km/h 16.7 km/h 70% 0 mm 0.0 W/m2 OVC
13:21 21 °C 15.3 °C 1032.1 hPa NE 16.7 km/h 16.7 km/h 70% 0 mm 0.0 W/m2 OVC
13:26 20.9 °C 15.3 °C 1032.1 hPa East 16.7 km/h 16.7 km/h 70% 0 mm 0.0 W/m2 OVC
13:31 20.9 °C 15.3 °C 1031.7 hPa North 16.7 km/h 16.7 km/h 70% 0 mm 0.0 W/m2 OVC
13:36 21 °C 15.3 °C 1031.7 hPa ESE 16.7 km/h 16.7 km/h 70% 0 mm 0.0 W/m2 OVC
13:41 21 °C 15.3 °C 1031.7 hPa North 16.7 km/h 16.7 km/h 70% 0 mm 0.0 W/m2 OVC
13:46 21.1 °C 15.4 °C 1031.7 hPa SSE 16.7 km/h 16.7 km/h 70% 0 mm 0.0 W/m2 OVC
13:51 21 °C 15.3 °C 1031.7 hPa SW 16.7 km/h   70% 0 mm 0.0 W/m2 OVC
13:56 21.1 °C 15.4 °C 1031.7 hPa WSW 16.7 km/h 16.7 km/h 70% 0 mm 0.0 W/m2 OVC
14:01 21.2 °C 15.3 °C 1031.7 hPa SSW 16.7 km/h 16.7 km/h 69% 0 mm 0.0 W/m2 OVC
14:07 21.3 °C 15.6 °C 1031.7 hPa ESE 16.7 km/h   70% 0 mm 0.0 W/m2 OVC
14:11 21.5 °C 15.6 °C 1031.7 hPa ESE 16.7 km/h   69% 0 mm 0.0 W/m2 OVC
14:17 21.5 °C 15.3 °C 1031.4 hPa SW 16.7 km/h 16.7 km/h 68% 0 mm 0.0 W/m2 OVC
14:22 21.6 °C 15.4 °C 1031.4 hPa SW 16.7 km/h   68% 0 mm 0.0 W/m2 OVC
14:27 21.6 °C 15.2 °C 1031.4 hPa SSE 16.7 km/h 16.7 km/h 67% 0 mm 0.0 W/m2 OVC
14:32 21.4 °C 15.3 °C 1031.4 hPa WNW 16.7 km/h   68% 0 mm 0.0 W/m2 OVC
14:37 21.6 °C 15.4 °C 1031.4 hPa NE 16.7 km/h 16.7 km/h 68% 0 mm 0.0 W/m2 OVC
14:42 21.7 °C 15.6 °C 1031.4 hPa NE 16.7 km/h 16.7 km/h 68% 0 mm 0.0 W/m2 OVC
14:47 21.7 °C 15.3 °C 1031.4 hPa South 16.7 km/h 16.7 km/h 67% 0 mm 0.0 W/m2 OVC
14:52 21.6 °C 15.2 °C 1031.4 hPa SSE 16.7 km/h   67% 0 mm 0.0 W/m2 OVC
14:57 21.6 °C 15.2 °C 1031.4 hPa SSE 16.7 km/h 16.7 km/h 67% 0 mm 0.0 W/m2 OVC
15:02 21.7 °C 15.6 °C 1031.4 hPa SSE 16.7 km/h   68% 0 mm 0.0 W/m2 OVC
15:07 21.8 °C 15.4 °C 1031.4 hPa NNE 16.7 km/h 16.7 km/h 67% 0 mm 0.0 W/m2 OVC
15:12 21.7 °C 15.3 °C 1031.4 hPa SW 16.7 km/h 16.7 km/h 67% 0 mm 0.0 W/m2 OVC
15:17 21.7 °C 15.3 °C 1031.4 hPa WNW 16.7 km/h 16.7 km/h 67% 0 mm 0.0 W/m2 OVC
15:22 21.7 °C 15.3 °C 1031.4 hPa North 16.7 km/h   67% 0 mm 0.0 W/m2 OVC
15:27 21.9 °C 15.2 °C 1031.4 hPa ENE 16.7 km/h 16.7 km/h 66% 0 mm 0.0 W/m2 OVC
15:32 21.8 °C 15.2 °C 1031.4 hPa SW 16.7 km/h 16.7 km/h 66% 0 mm 0.0 W/m2 OVC
15:37 21.9 °C 15.2 °C 1031.4 hPa East 16.7 km/h 16.7 km/h 66% 0 mm 0.0 W/m2 OVC
15:42 22 °C 15.3 °C 1031.4 hPa SSE 16.7 km/h   66% 0 mm 0.0 W/m2 OVC
15:47 21.8 °C 15.2 °C 1031.4 hPa ENE 16.7 km/h   66% 0 mm 0.0 W/m2 OVC
15:53 21.8 °C 15.2 °C 1031.4 hPa SSE 16.7 km/h 16.7 km/h 66% 0 mm 0.0 W/m2 OVC
15:58 21.6 °C 15.2 °C 1031.4 hPa East 16.7 km/h 16.7 km/h 67% 0 mm 0.0 W/m2 OVC
16:03 21.6 °C 15.2 °C 1031.4 hPa SSW 16.7 km/h 16.7 km/h 67% 0 mm 0.0 W/m2 CLR
16:08 21.5 °C 15.1 °C 1031.4 hPa SE 16.7 km/h 16.7 km/h 67% 0 mm 0.0 W/m2 CLR
16:13 21.6 °C 15.2 °C 1031.4 hPa ESE 16.7 km/h   67% 0 mm 0.0 W/m2 CLR
16:18 21.6 °C 15.2 °C 1031.4 hPa ESE 16.7 km/h   67% 0 mm 0.0 W/m2 CLR
16:23 21.6 °C 15 °C 1031.4 hPa West 16.7 km/h   66% 0 mm 0.0 W/m2 CLR
16:28 21.6 °C 15.2 °C 1031.4 hPa WNW 16.7 km/h 16.7 km/h 67% 0 mm 0.0 W/m2 CLR
16:33 21.5 °C 14.9 °C 1031.4 hPa NW 16.7 km/h   66% 0 mm 0.0 W/m2 CLR
16:38 21.6 °C 14.9 °C 1031.4 hPa NW 16.7 km/h   66% 0 mm 0.0 W/m2 CLR
16:43 21.5 °C 14.7 °C 1031.4 hPa ESE 16.7 km/h 16.7 km/h 65% 0 mm 0.0 W/m2 CLR
16:48 21.4 °C 15.1 °C 1031.4 hPa East 16.7 km/h 16.7 km/h 67% 0 mm 0.0 W/m2 CLR
16:53 21.4 °C 15 °C 1031.7 hPa ENE 16.7 km/h 16.7 km/h 67% 0 mm 0.0 W/m2 CLR
16:59 21.3 °C 15.2 °C 1031.7 hPa SSE 16.7 km/h   68% 0 mm 0.0 W/m2 CLR
17:04 21.2 °C 15.3 °C 1031.7 hPa SSE 16.7 km/h   69% 0 mm 0.0 W/m2 CLR
17:09 21.2 °C 15.3 °C 1031.7 hPa SSE 16.7 km/h   69% 0 mm 0.0 W/m2 CLR
17:14 21.1 °C 15.4 °C 1031.7 hPa SSE 16.7 km/h   70% 0 mm 0.0 W/m2 CLR
17:19 20.9 °C 15.2 °C 1031.7 hPa SSE 16.7 km/h   70% 0 mm 0.0 W/m2 CLR
17:24 20.7 °C 15.1 °C 1031.7 hPa SSE 16.7 km/h   70% 0 mm 0.0 W/m2 CLR
17:29 20.6 °C 15.1 °C 1031.7 hPa SSE 16.7 km/h   71% 0 mm 0.0 W/m2 CLR
17:34 20.2 °C 15 °C 1031.7 hPa SSE 16.7 km/h   72% 0 mm 0.0 W/m2 CLR
17:39 20 °C 15 °C 1031.7 hPa SSE 16.7 km/h   73% 0 mm 0.0 W/m2 CLR
17:44 19.7 °C 14.9 °C 1031.7 hPa SSE 16.7 km/h   74% 0 mm 0.0 W/m2 CLR
17:49 19.4 °C 14.7 °C 1031.7 hPa SSE 16.7 km/h   74% 0 mm 0.0 W/m2 CLR
17:54 19.2 °C 14.7 °C 1031.7 hPa SSE 16.7 km/h   75% 0 mm 0.0 W/m2 CLR
17:59 19 °C 14.4 °C 1031.7 hPa SSE 16.7 km/h   75% 0 mm 0.0 W/m2 CLR
18:05 18.8 °C 14.4 °C 1031.7 hPa SSE 16.7 km/h   76% 0 mm 0.0 W/m2
18:10 18.5 °C 14.2 °C 1031.7 hPa SSE 16.7 km/h   76% 0 mm 0.0 W/m2
18:15 18.3 °C 14.2 °C 1031.7 hPa SSE 16.7 km/h   77% 0 mm 0.0 W/m2
18:20 18 °C 14.1 °C 1031.7 hPa SSE 16.7 km/h   78% 0 mm 0.0 W/m2
18:25 17.8 °C 14.2 °C 1032.1 hPa SSE 16.7 km/h   79% 0 mm 0.0 W/m2
18:30 17.7 °C 14 °C 1032.1 hPa SSE 16.7 km/h   79% 0 mm 0.0 W/m2
18:35 17.6 °C 13.9 °C 1032.1 hPa SSE 16.7 km/h   79% 0 mm 0.0 W/m2
18:40 17.4 °C 13.9 °C 1032.1 hPa SSE 16.7 km/h   80% 0 mm 0.0 W/m2
18:45 17.3 °C 13.8 °C 1032.1 hPa SSE 16.7 km/h   80% 0 mm 0.0 W/m2
18:50 17.2 °C 13.7 °C 1032.1 hPa SSE 16.7 km/h   80% 0 mm 0.0 W/m2
18:55 17.1 °C 13.8 °C 1032.1 hPa SSE 16.7 km/h   81% 0 mm 0.0 W/m2
19:00 17 °C 13.7 °C 1032.1 hPa SSE 16.7 km/h   81% 0 mm 0.0 W/m2
19:06 16.9 °C 13.6 °C 1032.1 hPa SSE 16.7 km/h   81% 0 mm 0.0 W/m2
19:11 16.8 °C 13.7 °C 1032.4 hPa SSE 16.7 km/h   82% 0 mm 0.0 W/m2
19:16 16.7 °C 13.8 °C 1032.4 hPa SSE 16.7 km/h   83% 0 mm 0.0 W/m2
19:21 16.7 °C 13.8 °C 1032.4 hPa SSE 16.7 km/h   83% 0 mm 0.0 W/m2
19:26 16.8 °C 13.7 °C 1032.4 hPa SSE 16.7 km/h   82% 0 mm 0.0 W/m2
19:31 16.7 °C 13.6 °C 1032.4 hPa SSE 16.7 km/h   82% 0 mm 0.0 W/m2
19:36 16.6 °C 13.5 °C 1032.4 hPa SSE 16.7 km/h   82% 0 mm 0.0 W/m2
19:41 16.5 °C 13.6 °C 1032.4 hPa SSE 16.7 km/h   83% 0 mm 0.0 W/m2
19:46 16.3 °C 13.4 °C 1032.4 hPa SSE 16.7 km/h   83% 0 mm 0.0 W/m2
19:51 16.2 °C 13.3 °C 1032.4 hPa SSE 16.7 km/h   83% 0 mm 0.0 W/m2
19:56 16.1 °C 13.3 °C 1032.4 hPa SSE 16.7 km/h   84% 0 mm 0.0 W/m2
20:01 15.9 °C 13.2 °C 1032.4 hPa SSE 16.7 km/h   84% 0 mm 0.0 W/m2
20:06 15.7 °C 13 °C 1032.4 hPa SSE 16.7 km/h   84% 0 mm 0.0 W/m2
20:11 15.6 °C 13.1 °C 1032.4 hPa SSE 16.7 km/h   85% 0 mm 0.0 W/m2
20:16 15.4 °C 12.9 °C 1032.7 hPa SSE 16.7 km/h   85% 0 mm 0.0 W/m2
20:22 15.4 °C 12.9 °C 1032.4 hPa SSE 16.7 km/h   85% 0 mm 0.0 W/m2
20:27 15.3 °C 12.8 °C 1032.7 hPa SSE 16.7 km/h   85% 0 mm 0.0 W/m2
20:32 15.2 °C 12.9 °C 1032.7 hPa SSE 16.7 km/h   86% 0 mm 0.0 W/m2
20:37 15.1 °C 12.8 °C 1032.7 hPa SSE 16.7 km/h   86% 0 mm 0.0 W/m2
20:42 15 °C 12.7 °C 1032.7 hPa SSE 16.7 km/h   86% 0 mm 0.0 W/m2
20:47 15 °C 12.8 °C 1032.7 hPa SSE 16.7 km/h   87% 0 mm 0.0 W/m2
20:52 15.1 °C 12.9 °C 1032.7 hPa SSE 16.7 km/h   87% 0 mm 0.0 W/m2
20:57 15.1 °C 12.9 °C 1032.7 hPa SSE 16.7 km/h   87% 0 mm 0.0 W/m2
21:02 15.1 °C 12.9 °C 1032.7 hPa SSE 16.7 km/h   87% 0 mm 0.0 W/m2
21:07 15 °C 12.8 °C 1032.4 hPa SSE 16.7 km/h   87% 0 mm 0.0 W/m2
21:12 14.9 °C 12.8 °C 1032.7 hPa SSE 16.7 km/h   87% 0 mm 0.0 W/m2
21:18 14.9 °C 13 °C 1032.7 hPa SSE 16.7 km/h   88% 0 mm 0.0 W/m2
21:23 14.9 °C 13 °C 1032.7 hPa SSE 16.7 km/h   88% 0 mm 0.0 W/m2
21:28 15 °C 13 °C 1032.4 hPa SSE 16.7 km/h   88% 0 mm 0.0 W/m2
21:33 15.1 °C 13.1 °C 1032.4 hPa SSE 16.7 km/h   88% 0 mm 0.0 W/m2
21:38 15.1 °C 13.1 °C 1032.4 hPa SSE 16.7 km/h   88% 0 mm 0.0 W/m2
21:43 15.1 °C 13.1 °C 1032.7 hPa SSE 16.7 km/h   88% 0 mm 0.0 W/m2
21:48 15.2 °C 13.2 °C 1032.7 hPa SSE 16.7 km/h   88% 0 mm 0.0 W/m2
21:53 15.2 °C 13.2 °C 1032.7 hPa SSE 16.7 km/h   88% 0 mm 0.0 W/m2
21:58 15.1 °C 12.9 °C 1032.7 hPa SSE 16.7 km/h   87% 0 mm 0.0 W/m2
22:03 15 °C 13 °C 1032.7 hPa SSE 16.7 km/h   88% 0 mm 0.0 W/m2
22:08 15.1 °C 13.1 °C 1032.7 hPa SSE 16.7 km/h   88% 0 mm 0.0 W/m2
22:13 15.1 °C 13.1 °C 1032.7 hPa SSE 16.7 km/h   88% 0 mm 0.0 W/m2
22:18 15.1 °C 13.1 °C 1032.7 hPa SSE 16.7 km/h   88% 0 mm 0.0 W/m2
22:23 14.9 °C 13 °C 1032.7 hPa SSE 16.7 km/h   88% 0 mm 0.0 W/m2
22:28 14.9 °C 12.9 °C 1032.7 hPa SSE 16.7 km/h   88% 0 mm 0.0 W/m2
22:33 14.8 °C 12.9 °C 1032.7 hPa SSE 16.7 km/h   88% 0 mm 0.0 W/m2
22:38 14.8 °C 12.9 °C 1032.7 hPa SSE 16.7 km/h   88% 0 mm 0.0 W/m2
22:43 14.7 °C 12.8 °C 1032.7 hPa SSE 16.7 km/h   88% 0 mm 0.0 W/m2
22:48 14.6 °C 12.6 °C 1032.7 hPa SSE 16.7 km/h   88% 0 mm 0.0 W/m2
22:53 14.4 °C 12.5 °C 1032.7 hPa SSE 16.7 km/h   88% 0 mm 0.0 W/m2
22:59 14.3 °C 12.4 °C 1032.4 hPa SSE 16.7 km/h   88% 0 mm 0.0 W/m2
23:04 14.3 °C 12.5 °C 1032.7 hPa SSE 16.7 km/h   89% 0 mm 0.0 W/m2
23:09 14.2 °C 12.4 °C 1032.4 hPa SSE 16.7 km/h   89% 0 mm 0.0 W/m2
23:14 14.1 °C 12.3 °C 1032.4 hPa SSE 16.7 km/h   89% 0 mm 0.0 W/m2
23:19 14 °C 12.2 °C 1032.4 hPa SSE 16.7 km/h   89% 0 mm 0.0 W/m2
23:24 13.9 °C 12.3 °C 1032.4 hPa SSE 16.7 km/h   90% 0 mm 0.0 W/m2
23:29 13.8 °C 12.2 °C 1032.4 hPa SSE 16.7 km/h   90% 0 mm 0.0 W/m2
23:34 13.7 °C 12.1 °C 1032.4 hPa SSE 16.7 km/h   90% 0 mm 0.0 W/m2
23:39 13.6 °C 12 °C 1032.4 hPa SSE 16.7 km/h   90% 0 mm 0.0 W/m2
23:44 13.6 °C 11.9 °C 1032.1 hPa SSE 16.7 km/h   90% 0 mm 0.0 W/m2
23:49 13.6 °C 11.9 °C 1032.4 hPa SSE 16.7 km/h   90% 0 mm 0.0 W/m2
23:54 13.4 °C 11.8 °C 1032.4 hPa SSE 16.7 km/h   90% 0 mm 0.0 W/m2
23:59 13.3 °C 11.7 °C 1032.1 hPa SSE 16.7 km/h   90% 0 mm 0.0 W/m2
Piedmont Bend
Compliments of Weather Underground - 4 mb